Impacts METAR Board INFO
IDs:

KMDW - Chicago/Midway Intl, IL, US

Updated at: 0910 UTC 20 Jan 2018
Potential Impact None Slight Moderate High
Time19/21Z 19/22Z 19/23Z 20/00Z 20/01Z 20/02Z 20/03Z 20/04Z 20/05Z 20/06Z 20/07Z 20/08Z 20/09Z
VIS10 10 10 10 10 10 10 10 10 10 10 10 10
CIG250 250 250 250 250 250 250 250 250 300 300 200 200
CoverBKNBKNBKNBKNOVCOVCOVCOVCOVCOVCOVCBKNBKN
FltCatVFRVFRVFRVFRVFRVFRVFRVFRVFRVFRVFRVFRVFR
WX--------------------------
WDir200210210210210210210220220220220230230
WSpd17 19 14 16 16 18 17 14 14 16 13 11 9
WGst23 23 20 24 23 28 27 22 20 23 -- -- --
Raw hourly METARs
KMDW 192053Z 20017G23KT 10SM FEW150 BKN250 04/M03 A2979 RMK AO2 SLP096 T00391033 56025
KMDW 192153Z 21019G23KT 10SM FEW150 BKN250 04/M03 A2979 RMK AO2 PK WND 20026/2134 SLP097 T00391028
KMDW 192253Z 21014G20KT 10SM FEW150 BKN250 03/M02 A2976 RMK AO2 SLP090 T00281017
KMDW 192353Z 21016G24KT 10SM FEW150 BKN250 03/M02 A2975 RMK AO2 SLP085 T00331017 10039 20028 58011
KMDW 200053Z 21016G23KT 10SM FEW150 OVC250 03/M02 A2975 RMK AO2 SLP085 T00331017
KMDW 200153Z 21018G28KT 10SM OVC250 04/M02 A2975 RMK AO2 PK WND 21028/0151 SLP083 T00391017
KMDW 200253Z 21017G27KT 10SM OVC250 04/M02 A2974 RMK AO2 PK WND 21028/0235 SLP081 T00391017 58003
KMDW 200353Z 22014G22KT 10SM OVC250 04/M02 A2978 RMK AO2 PK WND 21027/0255 SLP093 T00391017
KMDW 200453Z 22014G20KT 10SM OVC250 04/M02 A2979 RMK AO2 SLP096 T00441017
KMDW 200553Z 22016G23KT 10SM SCT250 OVC300 04/M02 A2979 RMK AO2 SLP097 T00391017 10044 20033 400441022 51017
KMDW 200653Z 22013KT 10SM SCT250 OVC300 03/M02 A2980 RMK AO2 SLP098 T00331022
KMDW 200753Z 23011KT 10SM BKN200 03/M02 A2982 RMK AO2 SLP105 T00331022
KMDW 200853Z 23009KT 10SM BKN200 03/M02 A2983 RMK AO2 SLP108 T00331022 53010